Time;durP1;ratioP1;P1;durP2;ratioP2;P2;SDS_P1;SDS_P2;PMS_P1;PMS_P2;Temp;Humidity;BMP_temperature;BMP_pressure;BME280_temperature;BME280_humidity;BME280_pressure;Samples;Min_cycle;Max_cycle;Signal;HPM_P1;HPM_P2
2021/08/26 00:00:57;;;;;;;1999.90;999.90;;;;;;;17.38;100.00;95445.00;5089989;28;20260;-70
2021/08/26 00:06:16;;;;;;;1999.90;999.90;;;;;;;17.38;100.00;95438.97;5090220;28;20288;-70
2021/08/26 00:08:44;;;;;;;1999.90;999.90;;;;;;;17.19;100.00;95442.22;5089794;28;20278;-70
2021/08/26 00:11:13;;;;;;;1999.90;999.90;;;;;;;17.13;100.00;95441.72;5089850;28;20255;-69
2021/08/26 00:13:43;;;;;;;1999.90;999.90;;;;;;;17.12;100.00;95445.44;5090182;28;20203;-68
2021/08/26 00:16:10;;;;;;;1999.90;999.90;;;;;;;16.95;100.00;95442.34;5089889;28;20473;-69
2021/08/26 00:18:37;;;;;;;1999.90;999.90;;;;;;;16.98;100.00;95436.44;5089834;28;20199;-70
2021/08/26 00:21:05;;;;;;;1999.90;999.90;;;;;;;16.90;100.00;95434.69;5089909;28;20230;-70
2021/08/26 00:23:33;;;;;;;1999.90;999.90;;;;;;;16.77;100.00;95424.25;5089640;28;20197;-70
2021/08/26 00:26:00;;;;;;;1999.90;999.90;;;;;;;16.93;100.00;95426.19;5089564;28;20256;-70
2021/08/26 00:28:27;;;;;;;1999.90;999.90;;;;;;;16.95;100.00;95431.84;5089842;28;20272;-70
2021/08/26 00:30:54;;;;;;;1999.90;999.90;;;;;;;17.11;100.00;95435.28;5089520;28;20641;-70
2021/08/26 00:33:22;;;;;;;1999.90;999.90;;;;;;;17.04;100.00;95430.59;5089336;28;20762;-70
2021/08/26 00:35:49;;;;;;;1999.90;999.90;;;;;;;17.05;100.00;95440.00;5089589;28;20282;-71
2021/08/26 00:38:16;;;;;;;1999.90;999.90;;;;;;;16.99;100.00;95432.69;5089786;28;20274;-70
2021/08/26 00:40:46;;;;;;;1999.90;999.90;;;;;;;17.02;100.00;95427.56;5089709;28;20292;-69
2021/08/26 00:43:13;;;;;;;1999.90;999.90;;;;;;;16.98;100.00;95425.94;5089085;28;20346;-68
2021/08/26 00:45:41;;;;;;;1999.90;999.90;;;;;;;16.97;100.00;95427.03;5089654;28;20200;-69
2021/08/26 00:48:09;;;;;;;1999.90;999.90;;;;;;;16.99;100.00;95425.56;5088343;28;20253;-69
2021/08/26 00:50:36;;;;;;;1999.90;999.90;;;;;;;16.92;100.00;95429.88;5089048;28;20228;-69
2021/08/26 00:53:04;;;;;;;1999.90;999.90;;;;;;;16.95;100.00;95429.97;5089361;28;20195;-70
2021/08/26 00:55:31;;;;;;;1999.90;999.90;;;;;;;16.90;100.00;95432.84;5089236;28;20209;-69
2021/08/26 00:57:59;;;;;;;1999.90;999.90;;;;;;;16.95;100.00;95435.22;5089197;28;20742;-70
2021/08/26 01:00:26;;;;;;;1999.90;999.90;;;;;;;17.01;100.00;95436.53;5088368;28;20310;-70
2021/08/26 01:03:04;;;;;;;1999.90;999.90;;;;;;;16.97;100.00;95429.66;5089135;28;20293;-69
2021/08/26 01:05:39;;;;;;;1999.90;999.90;;;;;;;16.98;100.00;95429.31;5089102;28;20215;-69
2021/08/26 01:08:09;;;;;;;1999.90;999.90;;;;;;;16.92;100.00;95425.41;5089355;28;20191;-69
2021/08/26 01:10:38;;;;;;;1999.90;999.90;;;;;;;16.93;100.00;95429.56;5089285;28;20261;-69
2021/08/26 01:13:09;;;;;;;1999.90;999.90;;;;;;;16.98;100.00;95431.94;5089056;28;20200;-69
2021/08/26 01:15:36;;;;;;;1999.90;999.90;;;;;;;16.90;100.00;95424.19;5088913;28;20180;-70
2021/08/26 01:18:05;;;;;;;1999.90;999.90;;;;;;;16.83;100.00;95424.03;5089214;28;20502;-70
2021/08/26 01:20:32;;;;;;;1999.90;999.90;;;;;;;16.82;100.00;95412.75;5089179;28;20856;-70
2021/08/26 01:22:59;;;;;;;1999.90;999.90;;;;;;;16.72;100.00;95406.13;5089031;28;20695;-69
2021/08/26 01:25:29;;;;;;;1999.90;999.90;;;;;;;16.68;100.00;95410.53;5089148;28;20269;-70
2021/08/26 01:28:00;;;;;;;1999.90;999.90;;;;;;;16.61;100.00;95417.41;5089096;28;20621;-70
2021/08/26 01:30:32;;;;;;;1999.90;999.90;;;;;;;16.59;100.00;95409.09;5089055;28;20233;-70
2021/08/26 01:33:02;;;;;;;1999.90;999.90;;;;;;;16.58;100.00;95402.31;5088694;28;20187;-70
2021/08/26 01:35:29;;;;;;;1999.90;999.90;;;;;;;16.60;100.00;95410.63;5088689;28;20671;-70
2021/08/26 01:37:56;;;;;;;1999.90;999.90;;;;;;;16.59;100.00;95409.09;5089025;28;20191;-70
2021/08/26 01:40:35;;;;;;;1999.90;999.90;;;;;;;16.57;100.00;95411.28;5088911;28;20200;-70
2021/08/26 01:43:04;;;;;;;1999.90;999.90;;;;;;;16.56;100.00;95415.00;5088472;28;20251;-70
2021/08/26 01:45:31;;;;;;;1999.90;999.90;;;;;;;16.52;100.00;95414.91;5088531;28;20578;-70
2021/08/26 01:47:58;;;;;;;1999.90;999.90;;;;;;;16.47;100.00;95417.75;5088692;28;20237;-70
2021/08/26 01:50:28;;;;;;;1999.90;999.90;;;;;;;16.47;100.00;95423.00;5088099;28;20200;-70
2021/08/26 01:52:55;;;;;;;1999.90;999.90;;;;;;;16.47;100.00;95427.50;5088805;28;20242;-70
2021/08/26 01:55:22;;;;;;;1999.90;999.90;;;;;;;16.44;100.00;95428.16;5088711;28;20229;-70
2021/08/26 01:57:49;;;;;;;1999.90;999.90;;;;;;;16.34;100.00;95424.13;5088414;28;20625;-70
2021/08/26 02:00:18;;;;;;;1999.90;999.90;;;;;;;16.22;100.00;95416.28;5087904;28;20196;-70
2021/08/26 02:02:45;;;;;;;1999.90;999.90;;;;;;;16.07;100.00;95420.34;5082545;28;20211;-70
2021/08/26 02:05:13;;;;;;;1999.90;999.90;;;;;;;16.11;100.00;95421.22;5085518;28;20308;-70
2021/08/26 02:07:45;;;;;;;1999.90;999.90;;;;;;;16.22;100.00;95421.53;5088101;28;20204;-70
2021/08/26 02:10:12;;;;;;;1999.90;999.90;;;;;;;16.26;100.00;95417.91;5090743;28;20199;-70
2021/08/26 02:12:39;;;;;;;1999.90;999.90;;;;;;;16.23;100.00;95423.81;5107414;28;20231;-70
2021/08/26 02:15:10;;;;;;;1999.90;999.90;;;;;;;16.26;100.00;95417.91;5092032;28;20187;-69
2021/08/26 02:17:39;;;;;;;1999.90;999.90;;;;;;;16.30;100.00;95418.00;5092357;28;20701;-70
2021/08/26 02:20:07;;;;;;;1999.90;999.90;;;;;;;16.21;100.00;95414.75;5092035;28;20199;-70
2021/08/26 02:22:35;;;;;;;1999.90;999.90;;;;;;;16.17;100.00;95411.25;5091623;28;20239;-70
2021/08/26 02:25:02;;;;;;;1999.90;999.90;;;;;;;16.28;100.00;95404.47;5092182;28;20638;-70
2021/08/26 02:27:29;;;;;;;1999.90;999.90;;;;;;;16.28;100.00;95400.00;5092138;28;20248;-69
2021/08/26 02:29:56;;;;;;;1999.90;999.90;;;;;;;16.30;100.00;95397.78;5091990;28;20618;-70
2021/08/26 02:32:23;;;;;;;1999.90;999.90;;;;;;;16.27;100.00;95393.22;5091881;28;20226;-70
2021/08/26 02:34:52;;;;;;;1999.90;999.90;;;;;;;16.23;100.00;95396.84;5091746;28;20200;-69
2021/08/26 02:37:19;;;;;;;1999.90;999.90;;;;;;;16.29;100.00;95401.50;5091729;28;20553;-69
2021/08/26 02:39:47;;;;;;;1999.90;999.90;;;;;;;16.34;100.00;95406.53;5080169;28;20223;-69
2021/08/26 02:42:14;;;;;;;1999.90;999.90;;;;;;;16.45;100.00;95408.69;5072317;28;20212;-70
2021/08/26 02:44:41;;;;;;;1999.90;999.90;;;;;;;16.49;100.00;95405.06;5070933;28;20289;-69
2021/08/26 02:47:08;;;;;;;1999.90;999.90;;;;;;;16.53;100.00;95415.69;5071408;28;20273;-69
2021/08/26 02:49:37;;;;;;;1999.90;999.90;;;;;;;16.56;100.00;95410.53;5074893;28;20306;-70
2021/08/26 02:52:06;;;;;;;1999.90;999.90;;;;;;;16.63;100.00;95413.38;5070962;28;20228;-72
2021/08/26 02:54:33;;;;;;;1999.90;999.90;;;;;;;16.64;100.00;95412.25;5078702;28;20235;-72
2021/08/26 02:57:00;;;;;;;1999.90;999.90;;;;;;;16.65;100.00;95407.78;5091482;28;20187;-72
2021/08/26 02:59:27;;;;;;;1999.90;999.90;;;;;;;16.67;100.00;95410.84;5091023;28;20188;-71
2021/08/26 03:01:54;;;;;;;1999.90;999.90;;;;;;;16.70;100.00;95410.16;5091588;28;20570;-70
2021/08/26 03:04:21;;;;;;;1999.90;999.90;;;;;;;16.73;100.00;95412.16;5091049;28;20591;-71
2021/08/26 03:06:48;;;;;;;1999.90;999.90;;;;;;;16.68;100.00;95413.16;5091181;28;20260;-73
2021/08/26 03:09:17;;;;;;;1999.90;999.90;;;;;;;16.65;100.00;95416.41;5090899;28;20192;-70
2021/08/26 03:11:44;;;;;;;1999.90;999.90;;;;;;;16.67;100.00;95411.63;5090854;28;20317;-70
2021/08/26 03:14:11;;;;;;;1999.90;999.90;;;;;;;16.74;100.00;95414.41;5090221;28;20238;-70
2021/08/26 03:16:39;;;;;;;1999.90;999.90;;;;;;;16.72;100.00;95414.00;5090854;28;20243;-69
2021/08/26 03:19:06;;;;;;;1999.90;999.90;;;;;;;16.69;100.00;95408.63;5091082;28;20207;-70
2021/08/26 03:21:33;;;;;;;1999.90;999.90;;;;;;;16.80;100.00;95399.19;5091321;28;20207;-70
2021/08/26 03:24:00;;;;;;;1999.90;999.90;;;;;;;16.84;100.00;95394.06;5090151;28;20203;-71
2021/08/26 03:26:28;;;;;;;1999.90;999.90;;;;;;;16.94;100.00;95394.31;5090698;28;20195;-70
2021/08/26 03:28:55;;;;;;;1999.90;999.90;;;;;;;16.99;100.00;95401.94;5090693;28;20200;-70
2021/08/26 03:31:22;;;;;;;1999.90;999.90;;;;;;;17.04;100.00;95406.97;5091025;28;20264;-69
2021/08/26 03:33:49;;;;;;;1999.90;999.90;;;;;;;17.03;100.00;95407.31;5090720;28;20191;-69
2021/08/26 03:36:17;;;;;;;1999.90;999.90;;;;;;;17.02;100.00;95401.28;5090913;28;20196;-70
2021/08/26 03:38:44;;;;;;;1999.90;999.90;;;;;;;17.09;100.00;95408.56;5090575;28;20698;-71
2021/08/26 03:41:11;;;;;;;1999.90;999.90;;;;;;;17.15;100.00;95407.22;5088123;28;20279;-68
2021/08/26 03:43:40;;;;;;;1999.90;999.90;;;;;;;17.16;100.00;95396.41;5070764;28;20275;-69
2021/08/26 03:46:07;;;;;;;1999.90;999.90;;;;;;;17.17;100.00;95390.06;5070332;28;20573;-67
2021/08/26 03:48:34;;;;;;;1999.90;999.90;;;;;;;17.14;100.00;95397.81;5084573;28;20199;-70
2021/08/26 03:51:01;;;;;;;1999.90;999.90;;;;;;;17.23;100.00;95400.31;5090024;28;20252;-68
2021/08/26 03:53:28;;;;;;;1999.90;999.90;;;;;;;17.20;100.00;95397.25;5089233;28;20219;-69
2021/08/26 03:55:56;;;;;;;1999.90;999.90;;;;;;;17.20;100.00;95392.00;5085349;28;20649;-69
2021/08/26 03:58:23;;;;;;;1999.90;999.90;;;;;;;17.28;100.00;95392.94;5071859;28;20207;-71
2021/08/26 04:00:51;;;;;;;1999.90;999.90;;;;;;;17.32;100.00;95393.03;5075255;28;20262;-70
2021/08/26 04:03:18;;;;;;;1999.90;999.90;;;;;;;17.31;100.00;95381.75;5066801;28;20205;-70
2021/08/26 04:05:45;;;;;;;1999.90;999.90;;;;;;;17.37;100.00;95380.41;5067268;28;20204;-70
2021/08/26 04:08:12;;;;;;;1999.90;999.90;;;;;;;17.48;100.00;95380.66;5067531;28;20205;-70
2021/08/26 04:10:39;;;;;;;1999.90;999.90;;;;;;;17.52;100.00;95384.13;5067746;28;20234;-70
2021/08/26 04:13:07;;;;;;;1999.90;999.90;;;;;;;17.50;100.00;95388.97;5067619;28;20225;-70
2021/08/26 04:15:34;;;;;;;1999.90;999.90;;;;;;;17.57;100.00;95389.91;5067786;28;20649;-71
2021/08/26 04:18:02;;;;;;;1999.90;999.90;;;;;;;17.49;100.00;95392.69;5069714;28;20254;-74
2021/08/26 04:20:29;;;;;;;1999.90;999.90;;;;;;;17.41;100.00;95396.25;5070046;28;20204;-74
2021/08/26 04:22:56;;;;;;;1999.90;999.90;;;;;;;17.40;100.00;95398.13;5070041;28;20325;-72
2021/08/26 04:25:23;;;;;;;1999.90;999.90;;;;;;;17.55;100.00;95407.09;5069650;28;20292;-70
2021/08/26 04:27:50;;;;;;;1999.90;999.90;;;;;;;17.58;100.00;95401.19;5069739;28;20205;-71
2021/08/26 04:30:18;;;;;;;1999.90;999.90;;;;;;;17.67;100.00;95398.41;5069410;28;20230;-72
2021/08/26 04:32:45;;;;;;;1999.90;999.90;;;;;;;17.54;100.00;95403.72;5069544;28;20677;-70
2021/08/26 04:35:13;;;;;;;1999.90;999.90;;;;;;;17.66;100.00;95404.75;5069245;28;20681;-70
2021/08/26 04:37:40;;;;;;;1999.90;999.90;;;;;;;17.72;100.00;95406.78;5069419;28;20681;-70
2021/08/26 04:40:08;;;;;;;1999.90;999.90;;;;;;;17.63;100.00;95421.97;5069550;28;20196;-71
2021/08/26 04:42:36;;;;;;;1999.90;999.90;;;;;;;17.68;100.00;95420.97;5069283;28;20684;-71
2021/08/26 04:45:03;;;;;;;1999.90;999.90;;;;;;;17.65;100.00;95414.50;5075078;28;20231;-71
2021/08/26 04:47:30;;;;;;;1999.90;999.90;;;;;;;17.81;100.00;95399.50;5089500;28;20200;-72
2021/08/26 04:49:57;;;;;;;1999.90;999.90;;;;;;;17.96;100.00;95401.34;5089708;28;20664;-72
2021/08/26 04:52:26;;;;;;;1999.90;999.90;;;;;;;17.97;100.00;95391.59;5089605;28;20227;-72
2021/08/26 04:54:53;;;;;;;1999.90;999.90;;;;;;;18.12;100.00;95400.56;5089373;28;20195;-71
2021/08/26 04:57:20;;;;;;;1999.90;999.90;;;;;;;18.19;100.00;95392.78;5089224;28;20204;-71
2021/08/26 04:59:47;;;;;;;1999.90;999.90;;;;;;;18.15;100.00;95400.63;5089417;28;20203;-70
2021/08/26 05:02:14;;;;;;;1999.90;999.90;;;;;;;18.23;100.00;95388.41;5089654;28;20203;-71
2021/08/26 05:04:41;;;;;;;1999.90;999.90;;;;;;;18.11;100.00;95396.38;5089236;28;20295;-71
2021/08/26 05:07:08;;;;;;;1999.90;999.90;;;;;;;17.93;100.00;95402.00;5089567;28;20191;-71
2021/08/26 05:09:36;;;;;;;1999.90;999.90;;;;;;;18.02;100.00;95399.97;5089459;28;20192;-71
2021/08/26 05:12:06;;;;;;;1999.90;999.90;;;;;;;18.12;100.00;95387.41;5089449;28;20265;-71
2021/08/26 05:14:33;;;;;;;1999.90;999.90;;;;;;;18.21;100.00;95378.22;5089086;28;20291;-72
2021/08/26 05:17:00;;;;;;;1999.90;999.90;;;;;;;18.31;100.00;95375.03;5089376;28;20283;-72
2021/08/26 05:19:27;;;;;;;1999.90;999.90;;;;;;;18.49;100.00;95375.38;5089078;28;20200;-71
2021/08/26 05:21:54;;;;;;;1999.90;999.90;;;;;;;18.61;100.00;95383.19;5089250;28;20225;-71
2021/08/26 05:24:21;;;;;;;1999.90;999.90;;;;;;;18.56;100.00;95386.09;5089120;28;20732;-72
2021/08/26 05:26:50;;;;;;;1999.90;999.90;;;;;;;18.48;100.00;95389.63;5088854;28;20200;-72
2021/08/26 05:29:17;;;;;;;1999.90;999.90;;;;;;;18.50;100.00;95390.84;5089172;28;20541;-72
2021/08/26 05:31:44;;;;;;;1999.90;999.90;;;;;;;18.28;100.00;95385.50;5089176;28;20200;-71
2021/08/26 05:34:11;;;;;;;1999.90;999.90;;;;;;;18.14;100.00;95379.91;5088876;28;20200;-71
2021/08/26 05:36:39;;;;;;;1999.90;999.90;;;;;;;18.22;100.00;95377.09;5089275;28;20283;-71
2021/08/26 05:39:06;;;;;;;1999.90;999.90;;;;;;;18.23;100.00;95381.25;5089185;28;20199;-71
2021/08/26 05:41:33;;;;;;;1999.90;999.90;;;;;;;18.17;100.00;95374.75;5089204;28;20199;-71
2021/08/26 05:44:01;;;;;;;1999.90;999.90;;;;;;;18.29;100.00;95368.56;5088739;28;20234;-71
2021/08/26 05:46:28;;;;;;;1999.90;999.90;;;;;;;18.47;100.00;95359.19;5089369;28;20624;-70
2021/08/26 05:48:55;;;;;;;1999.90;999.90;;;;;;;18.24;100.00;95360.97;5092812;28;20256;-73
2021/08/26 05:51:22;;;;;;;1999.90;999.90;;;;;;;18.23;100.00;95356.81;5093151;28;20199;-73
2021/08/26 05:53:49;;;;;;;1999.90;999.90;;;;;;;18.46;100.00;95355.78;5093275;28;20227;-72
2021/08/26 05:56:16;;;;;;;1999.90;999.90;;;;;;;18.53;100.00;95355.16;5093170;28;20200;-72
2021/08/26 05:58:44;;;;;;;1999.90;999.90;;;;;;;18.62;100.00;95358.38;5092687;28;20208;-72
2021/08/26 06:01:12;;;;;;;1999.90;999.90;;;;;;;18.92;100.00;95371.72;5092922;28;20253;-73
2021/08/26 06:03:39;;;;;;;1999.90;999.90;;;;;;;18.96;100.00;95371.78;5092969;28;20202;-71
2021/08/26 06:06:06;;;;;;;1999.90;999.90;;;;;;;19.15;100.00;95375.16;5092534;28;20196;-72
2021/08/26 06:08:33;;;;;;;1999.90;999.90;;;;;;;19.40;100.00;95380.84;5092811;28;20200;-72
2021/08/26 06:11:00;;;;;;;1999.90;999.90;;;;;;;19.67;98.75;95382.44;5092614;28;20272;-72
2021/08/26 06:13:28;;;;;;;1999.90;999.90;;;;;;;19.86;98.23;95381.59;5092612;28;20348;-73
2021/08/26 06:15:55;;;;;;;1999.90;999.90;;;;;;;20.00;98.62;95405.53;5092596;28;20249;-71
2021/08/26 06:18:23;;;;;;;1999.90;999.90;;;;;;;19.86;98.37;95401.91;5092571;28;20238;-72
2021/08/26 06:20:50;;;;;;;1999.90;999.90;;;;;;;19.67;99.82;95403.53;5092623;28;20195;-74
2021/08/26 06:23:17;;;;;;;1999.90;999.90;;;;;;;19.68;99.51;95386.56;5092368;28;20206;-73
2021/08/26 06:25:45;;;;;;;1999.90;999.90;;;;;;;19.50;99.40;95385.53;5092382;28;20208;-73
2021/08/26 06:28:12;;;;;;;1999.90;999.90;;;;;;;19.37;99.33;95392.09;5092575;28;20227;-73
2021/08/26 06:30:38;;;;;;;1999.90;999.90;;;;;;;19.48;99.97;95381.72;5092217;28;20556;-72
2021/08/26 06:33:06;;;;;;;1999.90;999.90;;;;;;;19.54;97.58;95381.09;5092356;28;20224;-72
2021/08/26 06:35:35;;;;;;;1999.90;999.90;;;;;;;19.62;97.01;95371.44;5092010;28;20196;-74
2021/08/26 06:38:02;;;;;;;1999.90;999.90;;;;;;;19.57;95.78;95353.28;5092022;28;21030;-73
2021/08/26 06:40:29;;;;;;;1999.90;999.90;;;;;;;19.66;96.68;95357.19;5091852;28;20200;-73
2021/08/26 06:42:56;;;;;;;1999.90;999.90;;;;;;;19.94;95.88;95362.09;5091932;28;20671;-72
2021/08/26 06:45:24;;;;;;;1999.90;999.90;;;;;;;20.36;94.48;95361.16;5092114;28;20199;-74
2021/08/26 06:47:51;;;;;;;1999.90;999.90;;;;;;;20.60;96.65;95356.19;5092050;28;20199;-72
2021/08/26 06:50:18;;;;;;;1999.90;999.90;;;;;;;20.80;96.31;95363.94;5091680;28;20222;-72
2021/08/26 06:52:46;;;;;;;1999.90;999.90;;;;;;;20.79;91.87;95383.53;5091670;28;20227;-72
2021/08/26 06:55:13;;;;;;;1999.90;999.90;;;;;;;20.28;94.29;95383.28;5091592;28;20663;-72
2021/08/26 06:57:40;;;;;;;1999.90;999.90;;;;;;;20.28;91.33;95378.75;5091347;28;20199;-73
2021/08/26 07:00:08;;;;;;;1999.90;999.90;;;;;;;20.51;91.64;95381.34;5090897;28;20729;-73
2021/08/26 07:02:37;;;;;;;1999.90;999.90;;;;;;;20.32;95.20;95384.91;5091599;28;20272;-73
2021/08/26 07:05:05;;;;;;;1999.90;999.90;;;;;;;20.54;96.34;95384.03;5091561;28;20191;-73
2021/08/26 07:07:32;;;;;;;1999.90;999.90;;;;;;;20.41;96.20;95406.50;5091760;28;20227;-73
2021/08/26 07:10:00;;;;;;;1999.90;999.90;;;;;;;20.45;95.51;95401.25;5091711;28;20204;-72
2021/08/26 07:12:30;;;;;;;1999.90;999.90;;;;;;;20.56;93.53;95402.91;5091580;28;20195;-73
2021/08/26 07:14:58;;;;;;;1999.90;999.90;;;;;;;20.57;92.04;95393.84;5091286;28;20200;-74
2021/08/26 07:17:25;;;;;;;1999.90;999.90;;;;;;;20.62;92.04;95382.97;5091440;28;20200;-74
2021/08/26 07:19:52;;;;;;;1999.90;999.90;;;;;;;21.00;90.16;95386.41;5091500;28;20195;-73
2021/08/26 07:22:19;;;;;;;1999.90;999.90;;;;;;;21.23;90.95;95405.56;5091351;28;20199;-73
2021/08/26 07:24:46;;;;;;;1999.90;999.90;;;;;;;21.46;89.24;95398.22;5091317;28;20676;-73
2021/08/26 07:27:15;;;;;;;1999.90;999.90;;;;;;;21.54;87.24;95374.47;5091175;28;20211;-72
2021/08/26 07:29:42;;;;;;;1999.90;999.90;;;;;;;21.68;85.40;95369.28;5090886;28;20676;-71
2021/08/26 07:32:09;;;;;;;1999.90;999.90;;;;;;;21.51;86.25;95386.56;5091220;28;20222;-71
2021/08/26 07:34:36;;;;;;;1999.90;999.90;;;;;;;21.61;83.80;95385.88;5088551;28;20219;-72
2021/08/26 07:37:04;;;;;;;1999.90;999.90;;;;;;;21.70;82.55;95391.63;5090780;28;20199;-72
2021/08/26 07:39:31;;;;;;;1999.90;999.90;;;;;;;21.55;84.46;95387.34;5090736;28;20286;-72
2021/08/26 07:41:58;;;;;;;1999.90;999.90;;;;;;;21.61;83.62;95399.09;5090663;28;20223;-72
2021/08/26 07:44:26;;;;;;;1999.90;999.90;;;;;;;21.72;84.47;95399.16;5090472;28;20228;-72
2021/08/26 07:46:53;;;;;;;1999.90;999.90;;;;;;;21.93;84.65;95391.41;5090679;28;21112;-72
2021/08/26 07:49:20;;;;;;;1999.90;999.90;;;;;;;22.07;83.98;95391.50;5090380;28;20203;-73
2021/08/26 07:51:47;;;;;;;1999.90;999.90;;;;;;;22.17;82.81;95395.34;5090770;28;20208;-71
2021/08/26 07:54:14;;;;;;;1999.90;999.90;;;;;;;21.82;82.74;95386.03;5090331;28;20223;-71
2021/08/26 07:56:42;;;;;;;1999.90;999.90;;;;;;;21.97;81.66;95370.28;5090395;28;20203;-71
2021/08/26 07:59:09;;;;;;;1999.90;999.90;;;;;;;22.22;82.86;95364.00;5090374;28;20206;-71
2021/08/26 08:01:37;;;;;;;1999.90;999.90;;;;;;;22.19;82.46;95358.69;5090524;28;20246;-71
2021/08/26 08:04:04;;;;;;;1999.90;999.90;;;;;;;21.82;83.13;95364.09;5090586;28;20192;-70
2021/08/26 08:06:31;;;;;;;1999.90;999.90;;;;;;;21.53;84.91;95368.44;5090202;28;20195;-72
2021/08/26 08:08:59;;;;;;;1999.90;999.90;;;;;;;21.56;84.87;95369.59;5090566;28;20211;-73
2021/08/26 08:11:26;;;;;;;1999.90;999.90;;;;;;;21.76;84.19;95368.22;5090015;28;20200;-71
2021/08/26 08:13:53;;;;;;;1999.90;999.90;;;;;;;21.90;81.00;95376.25;5090116;28;20752;-72
2021/08/26 08:16:20;;;;;;;1999.90;999.90;;;;;;;22.11;82.32;95373.78;5090112;28;20680;-71
2021/08/26 08:18:49;;;;;;;1999.90;999.90;;;;;;;22.17;82.92;95361.69;5090325;28;20573;-71
2021/08/26 08:21:16;;;;;;;1999.90;999.90;;;;;;;22.52;79.85;95355.81;5090138;28;20595;-70
2021/08/26 08:23:43;;;;;;;1999.90;999.90;;;;;;;22.41;79.59;95354.25;5090177;28;20203;-70
2021/08/26 08:26:11;;;;;;;1999.90;999.90;;;;;;;22.14;79.30;95365.09;5089930;28;20208;-71
2021/08/26 08:28:39;;;;;;;1999.90;999.90;;;;;;;22.49;81.23;95374.34;5089826;28;20676;-71
2021/08/26 08:31:06;;;;;;;1999.90;999.90;;;;;;;22.39;79.96;95380.34;5089724;28;20211;-71
2021/08/26 08:33:35;;;;;;;1999.90;999.90;;;;;;;22.40;80.56;95376.56;5089740;28;20789;-70
2021/08/26 08:36:04;;;;;;;1999.90;999.90;;;;;;;22.31;79.82;95377.69;5089664;28;20238;-69
2021/08/26 08:38:31;;;;;;;1999.90;999.90;;;;;;;22.49;78.75;95369.81;5089608;28;20690;-69
2021/08/26 08:40:59;;;;;;;1999.90;999.90;;;;;;;22.53;79.70;95375.09;5089549;28;20204;-69
2021/08/26 08:43:26;;;;;;;1999.90;999.90;;;;;;;22.61;80.39;95372.13;5089354;28;20231;-69
2021/08/26 08:45:55;;;;;;;1999.90;999.90;;;;;;;22.68;79.01;95366.84;5089821;28;20194;-70
2021/08/26 08:48:22;;;;;;;1999.90;999.90;;;;;;;22.52;79.84;95369.03;5089509;28;20195;-71
2021/08/26 08:50:51;;;;;;;1999.90;999.90;;;;;;;22.54;81.67;95366.03;5089612;28;20310;-69
2021/08/26 08:53:20;;;;;;;1999.90;999.90;;;;;;;22.43;81.04;95373.16;5089818;28;20224;-69
2021/08/26 08:55:48;;;;;;;1999.90;999.90;;;;;;;22.30;82.67;95378.03;5089276;28;20196;-70
2021/08/26 08:58:15;;;;;;;1999.90;999.90;;;;;;;22.51;80.36;95370.19;5089385;28;20200;-70
2021/08/26 09:00:43;;;;;;;1999.90;999.90;;;;;;;22.58;81.44;95367.56;5089130;28;20736;-70
2021/08/26 09:03:10;;;;;;;1999.90;999.90;;;;;;;22.40;79.46;95371.28;5089490;28;20203;-70
2021/08/26 09:05:56;;;;;;;1999.90;999.90;;;;;;;22.29;80.74;95379.94;5089478;28;20206;-71
2021/08/26 09:08:27;;;;;;;1999.90;999.90;;;;;;;22.02;79.64;95389.22;5089546;28;20857;-70
2021/08/26 09:10:56;;;;;;;1999.90;999.90;;;;;;;21.74;80.65;95383.69;5089752;28;20180;-72
2021/08/26 09:13:30;;;;;;;1999.90;999.90;;;;;;;21.84;83.70;95377.72;5089254;28;20228;-71
2021/08/26 09:15:58;;;;;;;1999.90;999.90;;;;;;;21.73;83.78;95374.25;5089125;28;20203;-70
2021/08/26 09:18:25;;;;;;;1999.90;999.90;;;;;;;21.70;84.04;95377.63;5089562;28;20577;-70
2021/08/26 09:20:56;;;;;;;1999.90;999.90;;;;;;;21.65;84.55;95383.25;5089149;28;20199;-71
2021/08/26 09:23:27;;;;;;;1999.90;999.90;;;;;;;21.85;84.82;95376.59;5088670;28;20179;-72
2021/08/26 09:25:56;;;;;;;1999.90;999.90;;;;;;;21.68;84.71;95375.34;5089067;28;20188;-70
2021/08/26 09:28:28;;;;;;;1999.90;999.90;;;;;;;21.72;85.52;95373.47;5088999;28;20676;-71
2021/08/26 09:31:14;;;;;;;1999.90;999.90;;;;;;;21.63;85.01;95370.41;5088824;28;20200;-71
2021/08/26 09:33:53;;;;;;;1999.90;999.90;;;;;;;21.70;85.73;95374.97;5088972;28;20199;-71
2021/08/26 09:36:23;;;;;;;1999.90;999.90;;;;;;;21.73;85.94;95371.59;5089339;28;20745;-70
2021/08/26 09:38:58;;;;;;;1999.90;999.90;;;;;;;21.80;87.02;95377.72;5088829;28;20240;-71
2021/08/26 09:41:43;;;;;;;1999.90;999.90;;;;;;;21.94;88.60;95381.59;5089164;28;20237;-71
2021/08/26 09:44:12;;;;;;;1999.90;999.90;;;;;;;21.80;88.10;95382.25;5088638;28;20238;-70
2021/08/26 09:46:39;;;;;;;1999.90;999.90;;;;;;;21.94;89.13;95377.06;5088830;28;20196;-73
2021/08/26 09:49:08;;;;;;;1999.90;999.90;;;;;;;21.80;87.63;95382.25;5089048;28;20203;-72
2021/08/26 09:51:35;;;;;;;1999.90;999.90;;;;;;;21.84;88.20;95383.03;5089125;28;20200;-71
2021/08/26 09:54:05;;;;;;;1999.90;999.90;;;;;;;21.70;85.97;95383.69;5088764;28;20703;-71
2021/08/26 09:56:40;;;;;;;1999.90;999.90;;;;;;;21.84;89.29;95383.03;5089090;28;20219;-71
2021/08/26 09:59:07;;;;;;;1999.90;999.90;;;;;;;22.01;89.57;95376.38;5088746;28;20195;-72
2021/08/26 10:01:37;;;;;;;1999.90;999.90;;;;;;;21.97;89.70;95384.25;5089060;28;20211;-71
2021/08/26 10:04:28;;;;;;;1999.90;999.90;;;;;;;21.76;93.86;95381.47;5088793;28;20556;-71
2021/08/26 10:06:56;;;;;;;1999.90;999.90;;;;;;;21.55;92.60;95384.69;5089160;28;20184;-71
2021/08/26 10:09:25;;;;;;;1999.90;999.90;;;;;;;21.37;92.66;95376.59;5088899;28;20203;-71
2021/08/26 10:11:53;;;;;;;1999.90;999.90;;;;;;;21.38;92.69;95375.47;5088966;28;20196;-69
2021/08/26 10:14:20;;;;;;;1999.90;999.90;;;;;;;21.67;92.55;95378.38;5088654;28;20227;-69
2021/08/26 10:16:47;;;;;;;1999.90;999.90;;;;;;;21.68;92.95;95370.06;5089054;28;20714;-69
2021/08/26 10:19:16;;;;;;;1999.90;999.90;;;;;;;21.52;92.40;95360.88;5088669;28;20199;-69
2021/08/26 10:21:45;;;;;;;1999.90;999.90;;;;;;;21.46;94.31;95369.16;5088764;28;20236;-70
2021/08/26 10:24:13;;;;;;;1999.90;999.90;;;;;;;21.41;94.93;95377.41;5088821;28;20227;-69
2021/08/26 10:26:44;;;;;;;1999.90;999.90;;;;;;;21.41;94.72;95372.13;5088436;28;20196;-71
2021/08/26 10:29:13;;;;;;;1999.90;999.90;;;;;;;21.56;95.75;95367.72;5088799;28;20614;-69
2021/08/26 10:31:40;;;;;;;1999.90;999.90;;;;;;;21.81;95.16;95368.66;5088476;28;20236;-70
2021/08/26 10:34:20;;;;;;;1999.90;999.90;;;;;;;21.82;95.08;95370.16;5091298;28;20269;-68
2021/08/26 10:37:19;;;;;;;1999.90;999.90;;;;;;;21.90;95.76;95365.69;5092026;28;20192;-70
2021/08/26 10:39:46;;;;;;;1999.90;999.90;;;;;;;21.79;94.62;95364.84;5087744;28;20256;-70
2021/08/26 10:42:44;;;;;;;1999.90;999.90;;;;;;;21.92;93.42;95364.16;5092154;28;20207;-69
2021/08/26 10:45:24;;;;;;;1999.90;999.90;;;;;;;21.67;97.04;95367.78;5091953;28;20632;-69
2021/08/26 10:48:17;;;;;;;1999.90;999.90;;;;;;;21.89;95.22;95358.88;5091901;28;20184;-71
2021/08/26 10:50:48;;;;;;;1999.90;999.90;;;;;;;22.35;94.33;95361.81;5091710;28;20203;-70
2021/08/26 10:53:27;;;;;;;1999.90;999.90;;;;;;;22.55;91.43;95359.63;5092069;28;20188;-70
2021/08/26 10:55:56;;;;;;;1999.90;999.90;;;;;;;22.70;87.49;95358.53;5091710;28;20187;-69
2021/08/26 10:58:40;;;;;;;1999.90;999.90;;;;;;;22.91;87.56;95357.88;5091690;28;20195;-70